createdAt,value
2023-04-15T00:02:33.278Z,100.00
2023-04-15T00:06:37.996Z,100.00
2023-04-15T00:10:44.339Z,100.00
2023-04-15T00:14:48.007Z,100.00
2023-04-15T00:18:51.966Z,100.00
2023-04-15T00:22:55.187Z,100.00
2023-04-15T00:26:58.994Z,100.00
2023-04-15T00:31:02.588Z,100.00
2023-04-15T00:35:06.392Z,100.00
2023-04-15T00:39:09.778Z,100.00
2023-04-15T00:43:13.083Z,100.00
2023-04-15T00:47:17.722Z,100.00
2023-04-15T00:51:21.103Z,100.00
2023-04-15T00:55:24.299Z,100.00
2023-04-15T00:59:28.029Z,100.00
2023-04-15T01:03:31.659Z,100.00
2023-04-15T01:07:35.354Z,100.00
2023-04-15T01:11:39.310Z,100.00
2023-04-15T01:15:42.955Z,100.00
2023-04-15T01:19:46.850Z,100.00
2023-04-15T01:23:52.611Z,100.00
2023-04-15T01:27:56.126Z,100.00
2023-04-15T01:31:59.603Z,100.00
2023-04-15T01:36:03.928Z,100.00
2023-04-15T01:40:08.181Z,100.00
2023-04-15T01:44:11.964Z,100.00
2023-04-15T01:48:15.346Z,100.00
2023-04-15T01:52:18.762Z,100.00
2023-04-15T01:56:22.099Z,100.00
2023-04-15T02:00:25.469Z,100.00
2023-04-15T02:04:29.174Z,100.00
2023-04-15T02:08:32.644Z,100.00
2023-04-15T02:12:36.512Z,100.00
2023-04-15T02:16:39.935Z,100.00
2023-04-15T02:20:47.137Z,100.00
2023-04-15T02:24:50.672Z,100.00
2023-04-15T02:28:54.091Z,100.00
2023-04-15T02:32:57.455Z,100.00
2023-04-15T02:37:00.923Z,100.00
2023-04-15T02:41:04.990Z,100.00
2023-04-15T02:45:08.962Z,100.00
2023-04-15T02:49:12.380Z,100.00
2023-04-15T02:53:15.894Z,100.00
2023-04-15T02:57:19.341Z,100.00
2023-04-15T03:01:22.722Z,100.00
2023-04-15T03:05:26.421Z,100.00
2023-04-15T03:09:29.870Z,100.00
2023-04-15T03:13:33.109Z,100.00
2023-04-15T03:17:36.678Z,100.00
2023-04-15T03:21:39.968Z,100.00
2023-04-15T03:25:43.259Z,100.00
2023-04-15T03:34:54.090Z,100.00
2023-04-15T03:53:43.154Z,100.00
2023-04-15T03:57:52.027Z,100.00
2023-04-15T04:15:17.292Z,100.00
2023-04-15T04:23:53.393Z,100.00
2023-04-15T04:27:59.060Z,100.00
2023-04-15T05:56:20.850Z,100.00
2023-04-15T06:05:37.997Z,100.00
2023-04-15T06:11:04.407Z,97.00
2023-04-15T06:19:30.033Z,97.50
2023-04-15T06:23:38.927Z,98.34
2023-04-15T06:27:43.357Z,99.62
2023-04-15T06:31:51.750Z,96.11
2023-04-15T06:35:57.434Z,89.47
2023-04-15T06:40:03.278Z,87.44
2023-04-15T06:44:09.009Z,88.95
2023-04-15T06:48:13.365Z,88.89
2023-04-15T06:52:18.240Z,86.99
2023-04-15T07:33:18.292Z,85.69
2023-04-15T07:37:33.477Z,84.98
2023-04-15T07:41:50.467Z,84.91
2023-04-15T07:45:53.963Z,81.91
2023-04-15T07:54:37.472Z,80.15
2023-04-15T08:12:24.680Z,78.83
2023-04-15T08:35:28.027Z,77.16
2023-04-15T08:44:06.019Z,75.21
2023-04-15T08:48:13.112Z,73.98
2023-04-15T08:52:17.064Z,74.56
2023-04-15T08:56:29.016Z,73.13
2023-04-15T09:00:34.189Z,74.16
2023-04-15T09:04:37.496Z,75.28
2023-04-15T09:08:42.997Z,73.06
2023-04-15T09:12:46.211Z,73.21
2023-04-15T09:17:04.087Z,73.06
2023-04-15T09:21:11.361Z,68.86
2023-04-15T09:25:27.468Z,69.84
2023-04-15T09:29:30.754Z,73.53
2023-04-15T09:33:34.150Z,74.42
2023-04-15T09:37:37.576Z,72.35
2023-04-15T09:41:41.282Z,69.81
2023-04-15T09:45:53.638Z,69.31
2023-04-15T09:50:07.152Z,69.13
2023-04-15T09:54:13.804Z,68.81
2023-04-15T09:58:25.139Z,69.20
2023-04-15T10:02:30.833Z,67.01
2023-04-15T10:06:35.269Z,68.53
2023-04-15T10:10:48.625Z,66.38
2023-04-15T10:15:01.061Z,70.41
2023-04-15T10:19:07.262Z,68.52
2023-04-15T10:23:13.385Z,65.88
2023-04-15T10:27:18.113Z,64.02
2023-04-15T10:31:22.229Z,67.97
2023-04-15T10:35:25.672Z,66.51
2023-04-15T10:39:45.711Z,66.31
2023-04-15T10:43:53.983Z,64.51
2023-04-15T10:47:57.812Z,66.91
2023-04-15T10:52:01.560Z,66.26
2023-04-15T10:56:05.526Z,65.44
2023-04-15T11:00:09.218Z,67.51
2023-04-15T11:04:12.475Z,68.03
2023-04-15T11:08:16.433Z,68.19
2023-04-15T11:12:19.546Z,66.64
2023-04-15T11:16:23.085Z,66.37
2023-04-15T11:20:26.416Z,63.95
2023-04-15T11:29:18.628Z,61.42
2023-04-15T11:33:24.068Z,62.07
2023-04-15T11:37:32.432Z,61.09
2023-04-15T11:41:36.601Z,61.86
2023-04-15T11:46:01.212Z,62.84
2023-04-15T11:50:23.645Z,64.75
2023-04-15T11:54:26.886Z,64.25
2023-04-15T11:58:30.655Z,64.23
2023-04-15T12:02:37.258Z,64.93
2023-04-15T12:06:41.426Z,65.65
2023-04-15T12:10:44.438Z,63.54
2023-04-15T12:14:47.696Z,65.29
2023-04-15T12:18:59.095Z,64.58
2023-04-15T12:23:08.387Z,64.15
2023-04-15T12:27:12.787Z,63.61
2023-04-15T12:31:15.901Z,63.36
2023-04-15T12:35:21.720Z,63.82
2023-04-15T12:39:30.917Z,62.58
2023-04-15T12:43:34.174Z,63.95
2023-04-15T12:47:37.432Z,62.58
2023-04-15T12:51:41.152Z,62.73
2023-04-15T12:55:44.218Z,62.54
2023-04-15T12:59:48.234Z,61.96
2023-04-15T13:04:11.778Z,61.68
2023-04-15T13:08:15.813Z,61.46
2023-04-15T13:12:19.740Z,62.21
2023-04-15T13:16:23.963Z,62.33
2023-04-15T13:20:27.911Z,63.09
2023-04-15T13:24:31.275Z,61.73
2023-04-15T13:28:35.038Z,62.75
2023-04-15T13:32:38.499Z,63.00
2023-04-15T13:36:42.264Z,63.10
2023-04-15T13:45:07.872Z,59.74
2023-04-15T13:53:56.911Z,61.80
2023-04-15T13:57:59.869Z,61.86
2023-04-15T14:02:02.958Z,60.57
2023-04-15T14:06:08.807Z,62.29
2023-04-15T14:10:12.816Z,63.86
2023-04-15T14:14:18.531Z,60.66
2023-04-15T14:18:21.622Z,60.79
2023-04-15T14:22:24.697Z,61.65
2023-04-15T14:26:27.778Z,58.54
2023-04-15T14:30:31.039Z,56.51
2023-04-15T14:34:34.217Z,57.03
2023-04-15T14:38:38.814Z,57.21
2023-04-15T14:42:41.991Z,56.65
2023-04-15T14:46:45.183Z,55.70
2023-04-15T14:50:48.406Z,55.33
2023-04-15T14:54:51.391Z,59.40
2023-04-15T14:58:54.383Z,58.77
2023-04-15T15:02:57.425Z,57.01
2023-04-15T15:07:00.618Z,57.97
2023-04-15T15:11:04.000Z,57.29
2023-04-15T15:15:19.592Z,59.33
2023-04-15T15:19:31.073Z,58.86
2023-04-15T15:23:34.321Z,56.72
2023-04-15T15:27:38.318Z,55.11
2023-04-15T15:31:41.723Z,56.05
2023-04-15T15:35:45.194Z,58.31
2023-04-15T15:39:49.155Z,56.50
2023-04-15T15:43:53.562Z,55.61
2023-04-15T15:47:58.513Z,55.81
2023-04-15T15:52:01.605Z,55.71
2023-04-15T15:56:05.399Z,57.47
2023-04-15T16:00:12.793Z,56.11
2023-04-15T16:04:16.512Z,53.96
2023-04-15T16:08:20.918Z,53.77
2023-04-15T16:12:24.116Z,54.33
2023-04-15T16:16:27.808Z,55.38
2023-04-15T16:20:31.905Z,55.36
2023-04-15T16:24:35.244Z,57.09
2023-04-15T16:28:38.930Z,58.57
2023-04-15T16:32:42.759Z,56.33
2023-04-15T16:36:46.342Z,55.94
2023-04-15T16:40:49.711Z,56.87
2023-04-15T16:44:53.074Z,56.39
2023-04-15T16:48:56.383Z,58.36
2023-04-15T16:52:59.864Z,60.10
2023-04-15T16:57:03.585Z,59.39
2023-04-15T17:01:06.821Z,59.36
2023-04-15T17:05:10.055Z,60.30
2023-04-15T17:09:13.173Z,60.00
2023-04-15T17:13:16.181Z,58.69
2023-04-15T17:17:20.898Z,59.16
2023-04-15T17:21:24.049Z,60.17
2023-04-15T17:25:27.152Z,63.20
2023-04-15T17:29:30.503Z,68.22
2023-04-15T17:34:00.024Z,69.30
2023-04-15T17:37:56.717Z,69.09
2023-04-15T17:41:59.994Z,68.65
2023-04-15T17:46:03.114Z,67.19
2023-04-15T17:50:07.224Z,67.10
2023-04-15T17:54:10.652Z,67.21
2023-04-15T17:58:14.050Z,67.76
2023-04-15T18:02:17.453Z,68.73
2023-04-15T18:06:22.191Z,69.38
2023-04-15T18:10:25.360Z,69.36
2023-04-15T18:14:34.796Z,69.30
2023-04-15T18:18:38.477Z,69.52
2023-04-15T18:22:43.268Z,70.22
2023-04-15T18:26:48.991Z,70.46
2023-04-15T18:30:52.762Z,70.82
2023-04-15T18:34:56.592Z,71.10
2023-04-15T18:39:00.166Z,71.28
2023-04-15T18:43:03.603Z,71.10
2023-04-15T18:47:07.082Z,70.91
2023-04-15T18:51:10.604Z,70.76
2023-04-15T18:55:16.155Z,70.76
2023-04-15T18:59:30.008Z,70.89
2023-04-15T19:03:33.763Z,74.72
2023-04-15T19:07:37.567Z,80.41
2023-04-15T19:11:40.839Z,80.72
2023-04-15T19:15:44.172Z,81.31
2023-04-15T19:19:47.456Z,81.08
2023-04-15T19:23:50.852Z,80.71
2023-04-15T19:27:54.037Z,80.25
2023-04-15T19:31:57.436Z,80.63
2023-04-15T19:36:06.185Z,81.25
2023-04-15T19:40:10.040Z,81.71
2023-04-15T19:44:13.783Z,82.96
2023-04-15T19:48:17.427Z,84.39
2023-04-15T19:52:20.742Z,84.78
2023-04-15T19:56:24.281Z,84.81
2023-04-15T20:00:27.721Z,85.22
2023-04-15T20:04:31.434Z,85.85
2023-04-15T20:08:34.863Z,85.92
2023-04-15T20:12:51.258Z,88.49
2023-04-15T20:16:56.343Z,90.38
2023-04-15T20:21:00.097Z,90.68
2023-04-15T20:25:03.973Z,92.66
2023-04-15T20:29:07.658Z,93.18
2023-04-15T20:33:11.298Z,93.91
2023-04-15T20:37:14.524Z,94.54
2023-04-15T20:41:17.724Z,95.55
2023-04-15T20:45:21.139Z,97.05
2023-04-15T20:49:24.582Z,98.40
2023-04-15T20:53:27.861Z,96.93
2023-04-15T20:57:31.157Z,97.70
2023-04-15T21:01:34.338Z,98.86
2023-04-15T21:05:37.577Z,100.00
2023-04-15T21:09:43.164Z,100.00
2023-04-15T21:13:48.576Z,100.00
2023-04-15T21:17:51.929Z,100.00
2023-04-15T21:21:55.291Z,100.00
2023-04-15T21:25:59.175Z,100.00
2023-04-15T21:30:02.863Z,100.00
2023-04-15T21:34:06.211Z,100.00
2023-04-15T21:38:09.411Z,100.00
2023-04-15T21:42:12.624Z,100.00
2023-04-15T21:46:23.292Z,99.95
2023-04-15T21:50:28.585Z,100.00
2023-04-15T21:54:33.087Z,100.00
2023-04-15T21:58:36.857Z,99.76
2023-04-15T22:02:40.234Z,99.30
2023-04-15T22:06:43.589Z,98.36
2023-04-15T22:10:46.754Z,98.93
2023-04-15T22:14:50.046Z,98.88
2023-04-15T22:18:53.660Z,99.09
2023-04-15T22:22:56.874Z,98.04
2023-04-15T22:27:02.311Z,98.03
2023-04-15T22:31:06.205Z,99.14
2023-04-15T22:35:09.665Z,97.70
2023-04-15T22:39:12.899Z,96.65
2023-04-15T22:43:16.436Z,96.63
2023-04-15T22:47:20.931Z,96.45
2023-04-15T22:51:28.221Z,96.27
2023-04-15T22:55:32.106Z,96.52
2023-04-15T22:59:35.830Z,98.21
2023-04-15T23:03:56.226Z,99.43
2023-04-15T23:08:00.811Z,99.84
2023-04-15T23:12:04.381Z,100.00
2023-04-15T23:16:08.128Z,100.00
2023-04-15T23:20:12.290Z,100.00
2023-04-15T23:24:15.975Z,100.00
2023-04-15T23:28:19.416Z,100.00
2023-04-15T23:32:22.573Z,98.70
2023-04-15T23:36:26.114Z,98.28
2023-04-15T23:40:29.253Z,97.85
2023-04-15T23:44:32.717Z,98.13
2023-04-15T23:48:36.136Z,99.34
2023-04-15T23:52:39.628Z,100.00
2023-04-15T23:56:42.894Z,100.00
